CheckWX is a tool to help pilots better visualize weather data.  It is not intended as a substitute for an official pre-flight weather briefing.

05:19:19 UTC

KELA METAR
Eagle Lake Airport
Eagle Lake, Texas, USA
Current

24 mins ago

KELA 260455Z AUTO 7SM BKN012 BKN019 28/27 A2981 RMK AO2 T02780271
Observed
Aug-26 @ 04:55 UTC
Visibility
7 SM
Flight Rules
MVFR
Cloud Levels
  • Broken at 1,200' AGL
  • Broken at 1,900' AGL
Temperature
28°C / 82°F
Dewpoint
27°C / 81°F
Heat Index
34°C / 93°F
Humidity
94%
Altimeter
29.81" Hg
Pressure
1009.52 hPa
Previous

44 mins ago

KELA 260435Z AUTO 16005KT 10SM BKN012 BKN016 OVC022 28/27 A2981 RMK AO2 T02800272
Observed
Aug-26 @ 04:35 UTC
Wind
  • 160° at 5 KTS
Visibility
10 SM
Flight Rules
MVFR
Cloud Levels
  • Broken at 1,200' AGL
  • Broken at 1,600' AGL
  • Overcast at 2,200' AGL
Temperature
28°C / 82°F
Dewpoint
27°C / 81°F
Heat Index
34°C / 93°F
Humidity
94%
Altimeter
29.81" Hg
Pressure
1009.52 hPa
Previous

1 hour ago

KELA 260415Z AUTO 16005KT 10SM BKN012 BKN018 BKN023 28/27 A2981 RMK AO2 T02800272
Observed
Aug-26 @ 04:15 UTC
Wind
  • 160° at 5 KTS
Visibility
10 SM
Flight Rules
MVFR
Cloud Levels
  • Broken at 1,200' AGL
  • Broken at 1,800' AGL
  • Broken at 2,300' AGL
Temperature
28°C / 82°F
Dewpoint
27°C / 81°F
Heat Index
34°C / 93°F
Humidity
94%
Altimeter
29.81" Hg
Pressure
1009.52 hPa